Time;durP1;ratioP1;P1;durP2;ratioP2;P2;SDS_P1;SDS_P2;PMS_P1;PMS_P2;Temp;Humidity;BMP_temperature;BMP_pressure;BME280_temperature;BME280_humidity;BME280_pressure;Samples;Min_cycle;Max_cycle;Signal;HPM_P1;HPM_P2
2021/04/07 00:01:13;;;;;;;3.47;2.70;;;-1.30;99.90;;;-0.81;47.56;93764.31;5072253;28;20215;-66
2021/04/07 00:03:39;;;;;;;4.87;3.17;;;-1.30;99.90;;;-0.77;47.70;93766.31;5074250;28;20180;-66
2021/04/07 00:06:05;;;;;;;3.30;2.83;;;-1.30;99.90;;;-0.82;47.63;93766.13;5065395;28;20690;-66
2021/04/07 00:08:32;;;;;;;5.13;3.37;;;-1.30;99.90;;;-0.83;47.46;93766.31;5056469;28;20176;-67
2021/04/07 00:10:58;;;;;;;4.90;3.40;;;-1.30;99.90;;;-0.78;47.81;93767.34;5039545;28;20238;-66
2021/04/07 00:13:25;;;;;;;3.10;2.57;;;-1.30;99.90;;;-0.79;48.09;93764.91;5036615;28;20185;-66
2021/04/07 00:15:51;;;;;;;5.30;3.10;;;-1.30;99.90;;;-0.85;47.74;93761.31;5040109;28;20172;-67
2021/04/07 00:18:17;;;;;;;3.50;2.60;;;-1.30;99.90;;;-0.89;48.36;93761.91;5054217;28;20217;-67
2021/04/07 00:20:43;;;;;;;4.30;2.47;;;-1.30;99.90;;;-0.86;47.77;93764.09;5056209;28;20184;-67
2021/04/07 00:23:10;;;;;;;5.60;3.20;;;-1.30;99.90;;;-0.89;48.44;93759.31;5055446;28;20172;-66
2021/04/07 00:25:36;;;;;;;4.43;3.03;;;-1.40;99.90;;;-0.90;47.79;93749.91;5039794;28;20172;-66
2021/04/07 00:28:06;;;;;;;4.97;3.27;;;-1.40;99.90;;;-0.85;48.25;93752.72;5056091;28;20265;-67
2021/04/07 00:30:35;;;;;;;4.67;3.13;;;-1.30;99.90;;;-0.86;48.15;93745.91;5055346;28;20643;-66
2021/04/07 00:33:02;;;;;;;3.87;2.90;;;-1.30;99.90;;;-0.89;47.97;93748.91;5071784;28;20179;-67
2021/04/07 00:35:29;;;;;;;2.67;2.40;;;-1.40;99.90;;;-0.90;48.69;93752.50;5038999;28;20235;-67
2021/04/07 00:37:55;;;;;;;8.10;4.47;;;-1.40;99.90;;;-0.93;48.30;93750.28;5057554;28;20765;-67
2021/04/07 00:40:22;;;;;;;3.67;2.60;;;-1.40;99.90;;;-0.96;48.48;93748.91;5073177;28;20167;-66
2021/04/07 00:42:52;;;;;;;4.07;2.50;;;-1.50;99.90;;;-0.95;48.25;93741.91;5053697;28;20557;-67
2021/04/07 00:45:21;;;;;;;3.60;2.53;;;-1.40;99.90;;;-0.89;48.13;93741.09;5056269;28;20603;-66
2021/04/07 00:47:51;;;;;;;2.90;2.40;;;-1.40;99.90;;;-0.86;48.06;93740.69;5052157;28;20180;-66
2021/04/07 00:50:21;;;;;;;3.57;2.30;;;-1.40;99.90;;;-0.84;48.58;93741.31;5055547;28;20189;-66
2021/04/07 00:52:49;;;;;;;2.70;1.70;;;-1.40;99.90;;;-0.83;48.43;93745.50;5049855;28;20719;-65
2021/04/07 00:55:18;;;;;;;4.23;2.50;;;-1.30;99.90;;;-0.82;48.64;93741.91;5036015;28;20215;-67
2021/04/07 00:57:46;;;;;;;3.93;2.10;;;-1.30;99.90;;;-0.83;48.52;93742.91;5036556;28;20183;-67
2021/04/07 01:00:13;;;;;;;4.10;2.57;;;-1.40;99.90;;;-0.71;48.51;93744.72;5073669;28;20633;-68
2021/04/07 01:02:41;;;;;;;5.43;2.60;;;-1.30;99.90;;;-0.72;48.87;93742.31;5037454;28;20184;-66
2021/04/07 01:05:09;;;;;;;4.40;2.60;;;-1.30;99.90;;;-0.71;48.79;93744.72;5054682;28;20179;-68
2021/04/07 01:07:35;;;;;;;5.93;2.37;;;-1.30;99.90;;;-0.80;48.85;93732.09;5035530;28;20203;-67
2021/04/07 01:10:07;;;;;;;4.00;1.80;;;-1.30;99.90;;;-0.80;48.93;93734.69;5032204;28;20537;-66
2021/04/07 01:12:34;;;;;;;4.47;2.50;;;-1.30;99.90;;;-0.84;48.91;93736.13;5070606;28;20697;-67
2021/04/07 01:15:01;;;;;;;3.60;2.60;;;-1.30;99.90;;;-0.81;48.87;93726.13;5058065;28;20198;-67
2021/04/07 01:17:28;;;;;;;4.00;2.50;;;-1.30;99.90;;;-0.75;49.35;93738.31;5034853;28;20214;-67
2021/04/07 01:19:55;;;;;;;3.20;2.70;;;-1.30;99.90;;;-0.74;49.43;93734.69;5048880;28;20685;-67
2021/04/07 01:22:22;;;;;;;5.07;2.70;;;-1.20;99.90;;;-0.75;49.00;93717.50;5045262;28;20175;-67
2021/04/07 01:24:49;;;;;;;4.13;2.80;;;-1.30;99.90;;;-0.72;49.33;93739.72;5038314;28;20562;-67
2021/04/07 01:27:16;;;;;;;5.10;2.90;;;-1.20;99.90;;;-0.74;49.46;93726.13;5053999;28;20214;-67
2021/04/07 01:29:44;;;;;;;5.53;2.80;;;-1.20;99.90;;;-0.75;49.53;93727.09;5071456;28;20194;-68
2021/04/07 01:32:10;;;;;;;4.43;3.43;;;-1.20;99.90;;;-0.82;49.28;93727.09;5051197;28;20208;-67
2021/04/07 01:34:43;;;;;;;4.73;3.80;;;-1.30;99.90;;;-0.85;49.36;93727.50;5052130;28;20238;-67
2021/04/07 01:37:13;;;;;;;5.33;3.73;;;-1.30;99.90;;;-0.89;49.47;93728.91;5042185;28;20616;-66
2021/04/07 01:39:39;;;;;;;5.37;3.50;;;-1.40;99.90;;;-0.94;49.25;93723.47;5037198;28;20183;-67
2021/04/07 01:42:07;;;;;;;6.07;5.17;;;-1.40;99.90;;;-1.02;49.03;93741.09;5037214;28;20525;-66
2021/04/07 01:44:36;;;;;;;5.97;5.33;;;-1.50;99.90;;;-1.05;49.54;93739.69;5038158;28;20296;-68
2021/04/07 01:47:02;;;;;;;6.67;5.87;;;-1.50;99.90;;;-1.12;49.30;93744.06;5052241;28;20191;-67
2021/04/07 01:49:29;;;;;;;7.93;6.07;;;-1.60;99.90;;;-1.07;49.81;93755.47;5042348;28;20186;-68
2021/04/07 01:51:55;;;;;;;7.43;6.40;;;-1.60;99.90;;;-1.09;49.78;93765.28;5070227;28;20259;-67
2021/04/07 01:54:21;;;;;;;4.50;3.80;;;-1.60;99.90;;;-1.23;49.73;93768.84;5055143;28;20190;-66
2021/04/07 01:56:58;;;;;;;6.00;4.83;;;-1.70;99.90;;;-1.25;49.99;93778.66;5037710;28;20238;-67
2021/04/07 01:59:30;;;;;;;4.03;2.90;;;-1.70;99.90;;;-1.30;49.82;93778.41;5050518;28;20188;-66
2021/04/07 02:01:58;;;;;;;3.80;3.20;;;-1.80;99.90;;;-1.33;49.61;93775.41;5061505;28;20219;-66
2021/04/07 02:04:25;;;;;;;4.90;3.07;;;-1.80;99.90;;;-1.36;49.82;93771.41;5055158;28;20175;-66
2021/04/07 02:06:51;;;;;;;4.43;2.80;;;-1.80;99.90;;;-1.33;49.58;93773.59;5072129;28;20696;-66
2021/04/07 02:09:19;;;;;;;2.83;2.43;;;-1.80;99.90;;;-1.30;50.39;93778.41;5027308;28;20262;-67
2021/04/07 02:11:48;;;;;;;2.83;2.43;;;-1.70;99.90;;;-1.39;50.00;93771.78;5068055;28;20186;-66
2021/04/07 02:14:23;;;;;;;2.97;2.40;;;-1.80;99.90;;;-1.40;50.04;93790.97;5028362;28;20187;-67
2021/04/07 02:16:57;;;;;;;2.90;2.60;;;-1.80;99.90;;;-1.44;50.59;93784.56;5071610;28;20932;-66
2021/04/07 02:19:27;;;;;;;4.10;2.80;;;-1.90;99.90;;;-1.43;50.36;93791.38;5045148;28;20218;-67
2021/04/07 02:22:17;;;;;;;3.53;3.10;;;-1.90;99.90;;;-1.52;50.49;93797.72;5053708;28;20176;-66
2021/04/07 02:24:46;;;;;;;4.57;3.30;;;-1.90;99.90;;;-1.56;50.06;93796.50;5053502;28;20179;-67
2021/04/07 02:27:20;;;;;;;3.00;2.70;;;-2.00;99.90;;;-1.53;50.32;93800.50;5068910;28;20270;-66
2021/04/07 02:29:53;;;;;;;4.83;3.10;;;-2.00;99.90;;;-1.59;50.88;93808.09;5061998;28;20196;-67
2021/04/07 02:32:20;;;;;;;3.37;3.07;;;-2.00;99.90;;;-1.52;50.79;93812.50;5033049;28;20172;-66
2021/04/07 02:34:47;;;;;;;4.03;3.00;;;-2.00;99.90;;;-1.50;50.31;93816.50;5053946;28;20178;-67
2021/04/07 02:37:15;;;;;;;3.73;3.27;;;-1.90;99.90;;;-1.54;50.61;93830.88;5052082;28;20212;-67
2021/04/07 02:39:43;;;;;;;4.90;3.30;;;-2.00;99.90;;;-1.54;50.36;93825.69;5037199;28;20169;-67
2021/04/07 02:42:11;;;;;;;3.53;3.23;;;-2.00;99.90;;;-1.58;50.76;93843.44;5040770;28;20167;-66
2021/04/07 02:44:39;;;;;;;3.93;3.57;;;-2.00;99.90;;;-1.60;50.66;93832.47;5053357;28;20188;-67
2021/04/07 02:47:07;;;;;;;4.10;3.60;;;-2.00;99.90;;;-1.52;51.08;93841.91;5034504;28;20675;-66
2021/04/07 02:49:34;;;;;;;9.00;5.40;;;-1.90;99.90;;;-1.53;51.06;93850.69;5021101;28;20177;-67
2021/04/07 02:52:00;;;;;;;4.90;3.97;;;-2.00;99.90;;;-1.60;50.90;93844.66;5052017;28;20180;-66
2021/04/07 02:54:27;;;;;;;4.10;3.73;;;-2.00;99.90;;;-1.56;50.59;93858.84;5071229;28;20175;-66
2021/04/07 02:56:53;;;;;;;4.27;3.93;;;-2.00;99.90;;;-1.46;51.36;93868.91;5030550;28;20211;-67
2021/04/07 02:59:19;;;;;;;4.43;3.50;;;-1.90;99.90;;;-1.57;50.88;93859.84;5068562;28;20177;-67
2021/04/07 03:01:46;;;;;;;4.47;3.90;;;-2.00;99.90;;;-1.63;51.38;93865.81;5051670;28;20185;-67
2021/04/07 03:04:13;;;;;;;4.90;3.80;;;-2.10;99.90;;;-1.63;51.01;93876.19;5033245;28;20222;-68
2021/04/07 03:06:40;;;;;;;4.17;3.77;;;-2.10;99.90;;;-1.60;51.33;93878.41;5034352;28;20175;-67
2021/04/07 03:09:06;;;;;;;5.73;4.00;;;-2.10;99.90;;;-1.63;51.26;93886.59;5068397;28;20600;-67
2021/04/07 03:11:34;;;;;;;4.40;3.60;;;-2.10;99.90;;;-1.61;51.30;93885.41;5035397;28;20193;-68
2021/04/07 03:14:01;;;;;;;4.80;3.90;;;-2.10;99.90;;;-1.65;51.64;93891.19;5071045;28;20248;-67
2021/04/07 03:16:28;;;;;;;9.33;6.03;;;-2.10;99.90;;;-1.60;51.09;93896.59;5052557;28;20525;-67
2021/04/07 03:18:54;;;;;;;5.00;3.93;;;-2.10;99.90;;;-1.62;51.24;93906.38;5034945;28;20597;-66
2021/04/07 03:21:20;;;;;;;7.33;4.43;;;-2.10;99.90;;;-1.60;51.81;93919.97;5049035;28;20175;-66
2021/04/07 03:23:46;;;;;;;7.00;4.53;;;-2.10;99.90;;;-1.60;51.40;93917.38;5034522;28;20191;-67
2021/04/07 03:26:13;;;;;;;4.63;3.87;;;-2.10;99.90;;;-1.58;51.24;93918.78;5065459;28;20199;-67
2021/04/07 03:28:40;;;;;;;4.83;4.00;;;-2.10;99.90;;;-1.58;51.77;93931.00;5054017;28;20184;-66
2021/04/07 03:31:06;;;;;;;5.07;3.80;;;-2.10;99.90;;;-1.58;51.88;93931.78;5030361;28;20176;-66
2021/04/07 03:33:35;;;;;;;4.77;4.10;;;-2.00;99.90;;;-1.62;51.88;93921.97;5052661;28;20197;-65
2021/04/07 03:36:04;;;;;;;6.13;4.00;;;-2.10;99.90;;;-1.63;51.79;93931.56;5070141;28;20189;-67
2021/04/07 03:38:30;;;;;;;5.10;4.10;;;-2.10;99.90;;;-1.63;51.71;93941.94;5068033;28;20253;-66
2021/04/07 03:40:56;;;;;;;11.23;6.30;;;-2.10;99.90;;;-1.62;51.58;93942.75;5051141;28;20179;-66
2021/04/07 03:43:24;;;;;;;6.20;4.07;;;-2.10;99.90;;;-1.58;51.51;93941.38;5053450;28;20255;-67
2021/04/07 03:45:53;;;;;;;4.73;3.67;;;-2.10;99.90;;;-1.63;51.84;93938.53;5051802;28;20187;-66
2021/04/07 03:48:29;;;;;;;5.40;3.73;;;-2.10;99.90;;;-1.57;51.80;93954.16;5055997;28;20623;-66
2021/04/07 03:50:56;;;;;;;6.83;4.37;;;-2.10;99.90;;;-1.54;52.02;93945.19;5064268;28;20225;-66
2021/04/07 03:53:24;;;;;;;7.03;4.00;;;-2.00;99.90;;;-1.57;52.01;93936.00;5033452;28;20172;-66
2021/04/07 03:55:53;;;;;;;4.90;4.40;;;-2.10;99.90;;;-1.49;51.96;93945.44;5051633;28;20586;-66
2021/04/07 03:58:20;;;;;;;5.23;3.80;;;-2.00;99.90;;;-1.50;51.82;93948.22;5040495;28;20214;-66
2021/04/07 04:00:46;;;;;;;4.47;3.63;;;-2.00;99.90;;;-1.45;51.82;93951.88;5050150;28;20198;-66
2021/04/07 04:03:13;;;;;;;4.30;3.87;;;-1.90;99.90;;;-1.50;52.36;93941.22;5052924;28;20714;-66
2021/04/07 04:05:40;;;;;;;4.90;3.80;;;-2.00;99.90;;;-1.47;51.71;93950.44;5053354;28;20188;-67
2021/04/07 04:08:07;;;;;;;7.63;5.60;;;-1.90;99.90;;;-1.47;51.99;93956.44;5045621;28;20187;-67
2021/04/07 04:10:34;;;;;;;6.17;3.97;;;-1.90;99.90;;;-1.45;52.09;93962.25;5038212;28;20183;-68
2021/04/07 04:13:02;;;;;;;5.13;3.70;;;-1.90;99.90;;;-1.42;52.47;93974.88;5036211;28;20258;-67
2021/04/07 04:15:29;;;;;;;4.70;3.97;;;-1.90;99.90;;;-1.40;52.64;93979.84;5051868;28;20662;-66
2021/04/07 04:17:55;;;;;;;4.20;3.77;;;-1.90;99.90;;;-1.40;52.46;93978.06;5042524;28;20212;-67
2021/04/07 04:20:22;;;;;;;4.93;4.00;;;-1.90;99.90;;;-1.41;52.32;93989.44;5041126;28;20537;-67
2021/04/07 04:22:49;;;;;;;6.23;4.20;;;-1.90;99.90;;;-1.45;52.73;93990.03;5056229;28;20175;-68
2021/04/07 04:25:19;;;;;;;6.27;4.10;;;-1.90;99.90;;;-1.54;52.50;93997.16;5040267;28;20203;-68
2021/04/07 04:27:45;;;;;;;4.87;4.03;;;-2.00;99.90;;;-1.56;52.76;94007.75;5054833;28;20183;-67
2021/04/07 04:30:18;;;;;;;4.40;4.00;;;-2.10;99.90;;;-1.57;52.81;94005.31;5055733;28;20186;-67
2021/04/07 04:32:46;;;;;;;4.07;3.77;;;-2.10;99.90;;;-1.52;52.73;94012.56;5054260;28;20179;-66
2021/04/07 04:35:13;;;;;;;5.00;4.00;;;-2.00;99.90;;;-1.56;52.59;94015.53;5055751;28;20199;-65
2021/04/07 04:37:40;;;;;;;5.50;4.10;;;-2.00;99.90;;;-1.57;52.95;94020.91;5053700;28;20227;-67
2021/04/07 04:40:12;;;;;;;5.37;4.20;;;-2.00;99.90;;;-1.60;52.74;94018.69;5041401;28;20172;-66
2021/04/07 04:42:39;;;;;;;5.50;3.80;;;-2.10;99.90;;;-1.59;52.94;94022.91;5048875;28;20207;-66
2021/04/07 04:45:07;;;;;;;5.57;4.77;;;-2.10;99.90;;;-1.62;52.75;94024.09;5066997;28;20187;-66
2021/04/07 04:47:34;;;;;;;5.20;4.47;;;-2.10;99.90;;;-1.60;53.15;94037.69;5035971;28;20179;-66
2021/04/07 04:50:01;;;;;;;4.83;4.33;;;-2.10;99.90;;;-1.66;53.13;94040.22;5059839;28;20721;-66
2021/04/07 04:52:27;;;;;;;5.23;4.17;;;-2.10;99.90;;;-1.85;53.20;94046.06;5034373;28;20268;-66
2021/04/07 04:54:53;;;;;;;4.17;3.77;;;-2.30;99.90;;;-2.02;52.90;94049.88;5067620;28;20195;-67
2021/04/07 04:57:19;;;;;;;7.20;3.77;;;-2.40;99.90;;;-2.16;52.75;94065.31;5033076;28;20211;-68
2021/04/07 04:59:47;;;;;;;4.97;4.40;;;-2.50;99.90;;;-2.18;53.21;94076.84;5018214;28;20208;-67
2021/04/07 05:02:13;;;;;;;5.87;4.63;;;-2.60;99.90;;;-2.21;53.30;94077.22;5047975;28;20183;-68
2021/04/07 05:04:39;;;;;;;7.10;5.20;;;-2.60;99.90;;;-2.20;53.41;94087.41;5041922;28;20194;-66
2021/04/07 05:07:05;;;;;;;5.60;4.43;;;-2.70;99.90;;;-2.16;53.11;94093.06;5055897;28;20188;-67
2021/04/07 05:09:33;;;;;;;5.30;4.80;;;-2.70;99.90;;;-2.18;53.38;94095.00;5045200;28;20187;-68
2021/04/07 05:11:59;;;;;;;5.23;4.20;;;-2.60;99.90;;;-2.19;53.29;94102.00;5035708;28;20191;-67
2021/04/07 05:14:25;;;;;;;6.90;4.70;;;-2.60;99.90;;;-2.15;53.01;94111.03;5038299;28;20191;-67
2021/04/07 05:16:53;;;;;;;5.20;4.07;;;-2.60;99.90;;;-2.12;53.46;94110.69;5055741;28;20207;-67
2021/04/07 05:19:22;;;;;;;4.43;3.97;;;-2.60;99.90;;;-2.16;53.29;94111.22;5036034;28;20684;-67
2021/04/07 05:21:48;;;;;;;5.47;4.87;;;-2.60;99.90;;;-2.12;53.13;94115.88;5052042;28;20194;-67
2021/04/07 05:24:14;;;;;;;11.57;5.80;;;-2.60;99.90;;;-2.00;53.32;94120.56;5050463;28;20191;-69
2021/04/07 05:26:40;;;;;;;6.37;4.53;;;-2.50;99.90;;;-1.97;53.56;94120.22;5034113;28;20188;-69
2021/04/07 05:29:07;;;;;;;5.33;3.90;;;-2.50;99.90;;;-1.94;53.25;94130.22;5032418;28;20200;-68
2021/04/07 05:31:34;;;;;;;4.33;3.93;;;-2.50;99.90;;;-1.88;53.74;94132.13;5064505;28;20214;-68
2021/04/07 05:34:00;;;;;;;4.57;4.17;;;-2.40;99.90;;;-1.85;53.89;94137.75;5050968;28;20187;-66
2021/04/07 05:36:26;;;;;;;6.47;4.30;;;-2.30;99.90;;;-1.75;53.77;94134.84;5048858;28;20187;-68
2021/04/07 05:38:52;;;;;;;5.20;4.43;;;-2.30;99.90;;;-1.66;53.65;94147.53;5035359;28;20265;-67
2021/04/07 05:41:21;;;;;;;5.30;4.40;;;-2.20;99.90;;;-1.59;53.82;94155.41;5034614;28;20199;-67
2021/04/07 05:43:47;;;;;;;5.07;4.40;;;-2.10;99.90;;;-1.49;53.97;94153.31;5054204;28;20373;-67
2021/04/07 05:46:13;;;;;;;4.97;4.50;;;-2.00;99.90;;;-1.45;53.82;94170.13;5051418;28;20223;-66
2021/04/07 05:48:40;;;;;;;5.40;4.57;;;-1.90;99.90;;;-1.40;54.20;94167.78;5065243;28;20188;-67
2021/04/07 05:51:11;;;;;;;5.83;4.97;;;-1.90;99.90;;;-1.25;53.88;94173.72;5050790;28;20187;-66
2021/04/07 05:53:37;;;;;;;6.37;4.27;;;-1.80;99.90;;;-1.29;53.91;94179.47;5066048;28;20236;-66
2021/04/07 05:56:04;;;;;;;4.33;3.93;;;-1.80;99.90;;;-1.18;54.28;94182.41;5050901;28;20188;-67
2021/04/07 05:58:30;;;;;;;4.70;4.30;;;-1.70;99.90;;;-1.06;53.92;94183.50;5035944;28;20237;-67
2021/04/07 06:00:56;;;;;;;5.60;4.60;;;-1.60;99.90;;;-1.00;54.28;94188.94;5034348;28;20315;-66
2021/04/07 06:03:22;;;;;;;5.23;4.40;;;-1.50;99.90;;;-0.88;54.64;94196.06;5034768;28;20687;-67
2021/04/07 06:05:50;;;;;;;5.07;4.47;;;-1.40;99.90;;;-0.94;54.29;94196.00;5051626;28;20172;-66
2021/04/07 06:08:18;;;;;;;4.50;4.10;;;-1.40;99.90;;;-0.97;54.28;94207.56;5028823;28;20183;-65
2021/04/07 06:10:47;;;;;;;4.80;4.20;;;-1.40;99.90;;;-0.96;54.49;94210.97;5068556;28;20183;-67
2021/04/07 06:13:15;;;;;;;5.53;4.17;;;-1.40;99.90;;;-0.91;54.09;94208.63;5044412;28;20753;-68
2021/04/07 06:15:42;;;;;;;5.77;4.40;;;-1.40;99.90;;;-1.11;54.04;94222.25;5033130;28;20227;-67
2021/04/07 06:18:13;;;;;;;9.77;4.40;;;-1.50;99.90;;;-1.15;54.45;94226.22;5064819;28;20217;-68
2021/04/07 06:20:43;;;;;;;7.23;4.03;;;-1.60;99.90;;;-1.14;54.54;94238.22;5051646;28;20172;-67
2021/04/07 06:23:11;;;;;;;4.60;4.20;;;-1.60;99.90;;;-1.17;54.65;94240.38;5042470;28;20183;-68
2021/04/07 06:25:38;;;;;;;8.37;4.87;;;-1.60;99.90;;;-1.24;54.60;94242.91;5050104;28;20232;-67
2021/04/07 06:28:09;;;;;;;6.83;4.63;;;-1.70;99.90;;;-1.20;54.63;94246.75;5047903;28;20229;-68
2021/04/07 06:33:16;;;;;;;5.73;4.87;;;-1.60;99.90;;;-1.10;54.34;94264.66;5058304;28;20195;-69
2021/04/07 06:35:59;;;;;;;9.00;4.27;;;-1.70;99.90;;;-0.99;54.73;94269.38;5066116;28;20185;-68
2021/04/07 06:38:26;;;;;;;4.10;3.70;;;-1.60;99.90;;;-0.99;55.00;94271.97;5048592;28;20230;-69
2021/04/07 06:40:54;;;;;;;5.03;4.17;;;-1.50;99.90;;;-0.84;54.77;94282.34;5035187;28;20667;-68
2021/04/07 06:43:24;;;;;;;4.60;4.00;;;-1.40;99.90;;;-0.71;54.84;94285.88;5051093;28;20179;-69
2021/04/07 06:45:50;;;;;;;6.27;3.67;;;-1.30;99.90;;;-0.49;54.94;94286.63;5061318;28;20559;-70
2021/04/07 06:48:22;;;;;;;4.50;3.47;;;-1.10;99.90;;;-0.40;55.01;94287.34;5036336;28;20591;-69
2021/04/07 06:50:52;;;;;;;5.07;3.70;;;-1.00;99.90;;;-0.19;54.99;94301.09;5066260;28;20214;-71
2021/04/07 06:53:24;;;;;;;3.63;3.30;;;-0.90;99.90;;;0.05;54.93;94292.06;5064965;28;20210;-69
2021/04/07 06:55:50;;;;;;;4.25;3.42;;;-0.60;99.90;;;0.11;55.24;94300.91;5031120;28;20441;-68
2021/04/07 06:58:16;;;;;;;3.40;3.00;;;-0.50;99.90;;;0.16;55.14;94303.75;5051187;28;20604;-72
2021/04/07 07:00:42;;;;;;;3.90;3.03;;;-0.40;99.90;;;0.09;54.83;94316.75;5032318;28;20075;-71
2021/04/07 07:03:12;;;;;;;4.80;3.80;;;-0.40;99.90;;;0.02;55.06;94318.50;5048946;28;20449;-69
2021/04/07 07:05:43;;;;;;;5.80;3.72;;;-0.40;99.90;;;0.03;54.96;94337.53;5049049;28;20426;-70
2021/04/07 07:08:15;;;;;;;4.17;3.60;;;-0.40;99.90;;;0.62;54.87;94358.75;5051333;28;20177;-69
2021/04/07 07:10:43;;;;;;;7.43;4.40;;;-0.10;99.90;;;1.13;55.42;94351.38;5028900;28;20270;-71
2021/04/07 07:13:18;;;;;;;3.33;2.93;;;0.30;99.90;;;2.10;55.61;94370.03;5047617;28;20627;-71
2021/04/07 07:15:45;;;;;;;2.83;2.30;;;1.00;99.90;;;3.29;55.61;94358.31;5048951;28;20190;-68
2021/04/07 07:18:22;;;;;;;3.87;2.50;;;1.90;99.90;;;3.33;55.40;94344.56;5069237;28;20224;-68
2021/04/07 07:20:50;;;;;;;3.50;2.50;;;2.40;99.90;;;3.12;56.01;94337.03;5049971;28;20180;-69
2021/04/07 07:23:32;;;;;;;3.33;2.50;;;2.50;99.90;;;2.93;55.55;94346.56;5035839;28;20184;-68
2021/04/07 07:26:07;;;;;;;2.40;2.10;;;2.50;99.90;;;3.05;54.91;94347.53;5029276;28;20184;-70
2021/04/07 07:28:59;;;;;;;3.70;2.40;;;2.50;99.90;;;3.06;55.86;94343.88;5059510;28;20188;-68
2021/04/07 07:31:29;;;;;;;3.53;1.80;;;2.50;99.90;;;2.95;55.38;94336.69;5046254;28;20281;-69
2021/04/07 07:34:04;;;;;;;3.97;1.90;;;2.50;99.90;;;2.59;55.68;94324.09;5049996;28;20205;-69
2021/04/07 07:36:34;;;;;;;3.10;1.80;;;2.20;99.90;;;2.34;55.18;94364.19;5032340;28;20179;-69
2021/04/07 07:39:01;;;;;;;2.30;1.90;;;2.10;99.90;;;2.45;55.35;94393.13;5049164;28;20201;-69
2021/04/07 07:41:35;;;;;;;7.57;3.40;;;2.00;99.90;;;2.42;55.41;94377.84;5048858;28;20195;-71
2021/04/07 07:44:03;;;;;;;4.60;2.60;;;2.00;99.90;;;2.24;55.58;94369.03;5032412;28;20221;-73
2021/04/07 07:46:31;;;;;;;2.23;2.03;;;1.90;99.90;;;1.88;54.99;94378.03;5063343;28;20196;-71
2021/04/07 07:49:00;;;;;;;3.87;1.93;;;1.60;99.90;;;1.30;55.39;94371.72;5036861;28;20203;-71
2021/04/07 07:51:27;;;;;;;2.90;1.80;;;1.10;99.90;;;1.31;55.56;94398.63;5049459;28;20291;-71
2021/04/07 07:53:55;;;;;;;4.87;2.43;;;0.90;99.90;;;1.35;55.03;94408.47;5049547;28;20186;-69
2021/04/07 07:56:35;;;;;;;2.97;2.27;;;0.90;99.90;;;1.63;55.38;94405.75;5063945;28;20191;-68
2021/04/07 07:59:01;;;;;;;2.50;2.23;;;1.10;99.90;;;1.78;54.86;94429.09;5054185;28;20200;-71
2021/04/07 08:01:40;;;;;;;3.20;2.07;;;1.20;99.90;;;1.64;54.91;94419.63;5035260;28;20208;-69
2021/04/07 08:04:06;;;;;;;2.97;1.80;;;1.10;99.90;;;1.61;55.61;94422.63;5059533;28;20230;-70
2021/04/07 08:06:35;;;;;;;4.77;1.90;;;1.10;99.90;;;1.37;55.38;94416.13;5054345;28;20191;-69
2021/04/07 08:09:05;;;;;;;3.07;1.90;;;0.90;99.90;;;1.47;54.95;94422.59;5049547;28;20901;-68
2021/04/07 08:11:33;;;;;;;4.23;2.60;;;0.90;99.90;;;1.80;55.54;94453.22;5069941;28;20191;-70
2021/04/07 08:14:03;;;;;;;2.30;1.90;;;1.10;99.90;;;2.51;55.97;94444.66;5064901;28;20187;-70
2021/04/07 08:16:31;;;;;;;4.93;1.90;;;1.60;99.90;;;3.46;55.36;94483.34;5053625;28;20181;-70
2021/04/07 08:19:04;;;;;;;2.77;1.80;;;2.30;99.90;;;4.01;55.96;94468.81;5052314;28;20243;-69
2021/04/07 08:21:31;;;;;;;1.53;1.43;;;2.90;99.90;;;4.24;56.30;94438.63;5049135;28;20186;-70
2021/04/07 08:24:02;;;;;;;2.87;1.60;;;3.40;99.90;;;3.87;55.66;94442.88;5037851;28;20688;-70
2021/04/07 08:26:36;;;;;;;3.63;2.30;;;3.30;99.90;;;3.42;55.25;94440.25;5052003;28;20454;-69
2021/04/07 08:29:06;;;;;;;2.80;2.00;;;3.20;99.90;;;3.61;55.05;94452.47;5052844;28;20206;-73
2021/04/07 08:31:34;;;;;;;2.83;2.00;;;3.20;99.90;;;3.59;55.68;94444.00;5050711;28;20382;-71
2021/04/07 08:34:03;;;;;;;3.07;1.80;;;3.20;99.90;;;3.60;55.98;94471.81;5053140;28;20534;-69
2021/04/07 08:36:31;;;;;;;2.13;1.80;;;3.10;99.90;;;3.40;55.74;94467.66;5054834;28;20185;-71
2021/04/07 08:39:17;;;;;;;3.27;2.03;;;3.00;99.90;;;3.28;56.05;94448.34;5071417;28;20222;-69
2021/04/07 08:41:47;;;;;;;2.57;1.93;;;3.00;99.90;;;3.01;55.43;94458.91;5067076;28;20528;-67
2021/04/07 08:44:17;;;;;;;2.53;1.70;;;2.70;99.90;;;3.09;55.70;94468.31;5056500;28;20173;-68
2021/04/07 08:46:54;;;;;;;3.27;1.60;;;2.60;99.90;;;3.31;54.82;94477.56;5040711;28;20649;-68
2021/04/07 08:49:37;;;;;;;3.87;1.77;;;2.90;99.90;;;5.28;55.62;94542.00;5054695;28;20201;-71
2021/04/07 08:52:22;;;;;;;1.63;1.37;;;4.10;99.90;;;6.57;55.94;94505.72;5069503;28;20234;-69
2021/04/07 08:54:53;;;;;;;2.03;1.33;;;5.80;99.90;;;6.84;55.78;94508.78;5055543;28;20183;-70
2021/04/07 08:57:36;;;;;;;2.57;1.60;;;6.50;99.90;;;7.55;55.97;94520.97;5054922;28;20614;-70
2021/04/07 09:00:13;;;;;;;2.17;1.30;;;7.20;99.90;;;8.95;55.54;94585.63;5050912;28;20248;-69
2021/04/07 09:03:08;;;;;;;1.87;1.50;;;8.40;99.90;;;12.79;56.11;94606.56;5052056;28;20208;-71
2021/04/07 09:05:43;;;;;;;2.40;1.30;;;11.80;97.20;;;15.78;56.05;94537.44;5049706;28;20656;-69
2021/04/07 09:08:25;;;;;;;1.67;1.30;;;16.00;81.20;;;14.46;55.50;94395.25;5030189;28;20215;-69
2021/04/07 09:10:57;;;;;;;6.33;3.23;;;16.10;71.20;;;12.87;55.68;94458.97;5071636;28;20263;-69
2021/04/07 09:13:35;;;;;;;2.20;1.37;;;14.70;71.70;;;11.18;55.65;94439.09;5053338;28;20259;-70
2021/04/07 09:16:05;;;;;;;2.23;1.43;;;13.20;72.30;;;10.24;55.09;94472.44;5055000;28;20175;-69
2021/04/07 09:18:47;;;;;;;1.60;1.50;;;11.90;75.90;;;8.01;54.80;94412.69;5048900;28;20540;-67
2021/04/07 09:21:16;;;;;;;2.33;1.33;;;9.80;80.20;;;8.10;53.97;94506.31;5031721;28;20188;-68
2021/04/07 09:23:53;;;;;;;2.87;1.57;;;8.80;87.70;;;9.22;54.47;94562.81;5054904;28;20202;-68
2021/04/07 09:26:22;;;;;;;1.30;1.17;;;9.20;89.20;;;10.11;54.74;94508.00;5036524;28;20165;-68
2021/04/07 09:28:58;;;;;;;2.03;1.23;;;10.40;85.40;;;11.00;54.68;94519.06;5063330;28;20184;-68
2021/04/07 09:31:30;;;;;;;2.83;1.40;;;11.10;80.10;;;10.39;54.89;94511.53;5054123;28;20171;-68
2021/04/07 09:33:57;;;;;;;2.50;1.10;;;11.00;80.10;;;8.96;53.83;94472.75;5048752;28;20181;-68
2021/04/07 09:36:36;;;;;;;1.33;1.20;;;9.90;79.20;;;8.45;53.84;94532.63;5068639;28;20954;-69
2021/04/07 09:39:18;;;;;;;6.33;3.90;;;9.10;83.10;;;8.16;53.81;94492.16;5043093;28;20430;-68
2021/04/07 09:41:45;;;;;;;1.67;1.10;;;9.00;86.40;;;7.95;54.11;94476.97;5071036;28;20630;-70
2021/04/07 09:44:15;;;;;;;2.00;1.30;;;8.50;83.40;;;7.01;53.75;94504.44;5071615;28;20433;-72
2021/04/07 09:46:48;;;;;;;1.83;1.20;;;8.00;88.30;;;6.25;53.10;94493.81;5039250;28;20437;-69
2021/04/07 09:49:14;;;;;;;1.53;1.27;;;7.30;89.70;;;6.07;53.54;94522.81;5050005;28;20188;-70
2021/04/07 09:51:48;;;;;;;1.23;1.13;;;6.80;91.10;;;5.56;53.45;94526.56;5053775;28;20695;-70
2021/04/07 09:54:29;;;;;;;1.77;1.30;;;6.10;93.30;;;5.25;53.15;94560.03;5072138;28;20247;-72
2021/04/07 09:56:58;;;;;;;2.43;1.30;;;5.50;93.70;;;5.13;53.46;94557.31;5066243;28;20184;-71
2021/04/07 09:59:42;;;;;;;4.23;1.70;;;5.30;95.70;;;5.27;53.39;94563.25;5037768;28;20193;-72
2021/04/07 10:02:11;;;;;;;2.77;1.60;;;5.20;95.70;;;5.50;53.29;94572.13;5052866;28;20189;-69
2021/04/07 10:04:42;;;;;;;2.87;1.60;;;5.40;97.20;;;5.82;53.53;94556.22;5072239;28;20184;-70
2021/04/07 10:07:11;;;;;;;7.57;4.27;;;5.70;97.30;;;5.59;53.13;94528.78;5038082;28;20175;-70
2021/04/07 10:09:39;;;;;;;2.97;1.40;;;5.80;96.80;;;5.38;53.53;94549.38;5053046;28;20231;-71
2021/04/07 10:12:07;;;;;;;1.37;1.17;;;5.70;97.00;;;5.17;53.40;94532.22;5052782;28;20642;-72
2021/04/07 10:14:34;;;;;;;1.50;1.33;;;5.50;96.80;;;5.12;53.09;94547.81;5054947;28;20218;-71
2021/04/07 10:17:25;;;;;;;1.33;1.17;;;5.30;96.40;;;5.27;53.25;94568.50;5053560;28;20661;-71
2021/04/07 10:19:51;;;;;;;2.40;1.50;;;5.20;97.50;;;5.69;53.13;94588.72;5037280;28;20195;-71
2021/04/07 10:22:33;;;;;;;1.77;1.53;;;5.50;98.40;;;6.04;52.95;94595.06;5071224;28;20194;-71
2021/04/07 10:25:14;;;;;;;1.43;1.30;;;5.80;98.00;;;6.86;53.17;94598.09;5052309;28;20179;-70
2021/04/07 10:27:43;;;;;;;1.63;1.33;;;6.60;97.30;;;8.28;53.33;94647.97;5054725;28;20270;-70
2021/04/07 10:30:14;;;;;;;1.37;1.20;;;7.80;96.60;;;9.50;53.68;94559.28;5037091;28;20218;-73
2021/04/07 10:32:42;;;;;;;2.20;1.47;;;9.50;92.00;;;8.10;53.93;94527.41;5053281;28;20854;-74
2021/04/07 10:35:26;;;;;;;1.93;1.50;;;8.70;90.90;;;7.08;53.56;94564.97;5071239;28;20222;-71